Sheffield Village, Ohio
Current Conditions -  °F | °C
As of 5:53 PM on Monday 22 Dec 2014 (Local Time) from KLPR Reporting Station
Clear Clear  
Wind Chill: 33°   Ceiling: Unl
Heat Index: 39°   Visibility: 10mi
Dew Point: 31°   Wind: 8mph
Humidity: 73%   Direction: 120°ESE
Pressure: 29.92"   Gusts: NA
Location:  41.465°N, 82.0929°W
Report Text: KLPR 222253Z AUTO 12007KT 10SM CLR 04/M01 A2992 RMK AO2 SLP139 T00391006 TSNO
Loading
Personal Weather Stations






























Interactive Weather Map New forecast layout! Learn more

10-Day Weather Forecast

Advertisements
Track Severe Weather on mobile